createdAt,value
2023-01-30T00:01:46.594Z,99666.97
2023-01-30T00:04:17.143Z,99661.13
2023-01-30T00:06:45.608Z,99667.16
2023-01-30T00:09:16.122Z,99664.44
2023-01-30T00:11:44.035Z,99643.59
2023-01-30T00:14:11.982Z,99613.13
2023-01-30T00:16:40.016Z,99623.47
2023-01-30T00:19:08.001Z,99619.28
2023-01-30T00:21:35.977Z,99597.53
2023-01-30T00:24:04.133Z,99600.06
2023-01-30T00:26:33.431Z,99591.47
2023-01-30T00:29:01.500Z,99598.19
2023-01-30T00:31:29.472Z,99589.84
2023-01-30T00:33:57.428Z,99609.69
2023-01-30T00:36:25.338Z,99597.88
2023-01-30T00:38:53.258Z,99607.22
2023-01-30T00:41:21.883Z,99609.94
2023-01-30T00:44:08.611Z,99602.00
2023-01-30T00:46:54.232Z,99601.06
2023-01-30T00:49:22.334Z,99578.63
2023-01-30T00:51:50.223Z,99563.81
2023-01-30T00:54:18.159Z,99572.44
2023-01-30T00:56:46.085Z,99569.00
2023-01-30T00:59:15.633Z,99563.84
2023-01-30T01:01:43.594Z,99563.75
2023-01-30T01:04:11.899Z,99556.88
2023-01-30T01:06:39.867Z,99571.56
2023-01-30T01:09:08.576Z,99573.38
2023-01-30T01:11:37.185Z,99573.28
2023-01-30T01:14:06.512Z,99566.44
2023-01-30T01:16:36.590Z,99561.25
2023-01-30T01:19:04.892Z,99570.84
2023-01-30T01:21:32.877Z,99568.25
2023-01-30T01:24:01.671Z,99576.19
2023-01-30T01:26:29.794Z,99555.31
2023-01-30T01:28:58.361Z,99579.63
2023-01-30T01:31:26.503Z,99578.78
2023-01-30T01:33:55.937Z,99603.25
2023-01-30T01:36:51.679Z,99609.41
2023-01-30T01:39:12.013Z,99623.38
2023-01-30T01:41:38.904Z,99639.91
2023-01-30T01:44:08.738Z,99645.13
2023-01-30T01:46:39.891Z,99660.03
2023-01-30T01:49:17.029Z,99660.78
2023-01-30T01:51:51.830Z,99665.19
2023-01-30T01:54:26.804Z,99687.75
2023-01-30T01:56:54.926Z,99709.59
2023-01-30T01:59:27.927Z,99726.13
2023-01-30T02:01:59.362Z,99718.31
2023-01-30T02:04:49.217Z,99740.09
2023-01-30T02:07:19.859Z,99740.00
2023-01-30T02:09:47.991Z,99737.28
2023-01-30T02:12:16.590Z,99715.72
2023-01-30T02:14:45.569Z,99702.00
2023-01-30T02:17:13.566Z,99695.84
2023-01-30T02:19:51.578Z,99700.22
2023-01-30T02:22:33.168Z,99671.50
2023-01-30T02:25:30.890Z,99687.00
2023-01-30T02:28:30.049Z,99692.25
2023-01-30T02:31:28.315Z,99660.19
2023-01-30T02:34:08.767Z,99685.34
2023-01-30T02:36:47.784Z,99660.31
2023-01-30T02:39:27.986Z,99694.00
2023-01-30T02:42:06.612Z,99655.25
2023-01-30T02:44:43.809Z,99692.38
2023-01-30T02:47:17.217Z,99666.38
2023-01-30T02:49:50.742Z,99666.19
2023-01-30T02:52:18.771Z,99670.69
2023-01-30T02:54:46.735Z,99662.06
2023-01-30T02:57:21.180Z,99675.88
2023-01-30T02:59:52.163Z,99664.53
2023-01-30T03:02:43.271Z,99654.19
2023-01-30T03:05:30.114Z,99664.69
2023-01-30T03:08:13.261Z,99668.97
2023-01-30T03:10:50.778Z,99682.88
2023-01-30T03:13:27.313Z,99702.91
2023-01-30T03:16:01.010Z,99679.50
2023-01-30T03:18:30.806Z,99666.47
2023-01-30T03:21:05.541Z,99643.88
2023-01-30T03:23:33.631Z,99643.97
2023-01-30T03:26:04.287Z,99665.75
2023-01-30T03:28:33.299Z,99665.75
2023-01-30T03:31:01.279Z,99636.97
2023-01-30T03:33:30.621Z,99607.63
2023-01-30T03:35:58.725Z,99632.69
2023-01-30T03:38:26.683Z,99631.84
2023-01-30T03:40:54.701Z,99637.06
2023-01-30T03:43:23.825Z,99636.16
2023-01-30T03:45:51.714Z,99629.13
2023-01-30T03:48:19.722Z,99629.06
2023-01-30T03:50:49.005Z,99640.25
2023-01-30T03:53:16.966Z,99623.81
2023-01-30T03:55:45.944Z,99628.25
2023-01-30T03:58:13.998Z,99608.31
2023-01-30T04:00:42.008Z,99597.91
2023-01-30T04:03:10.037Z,99596.97
2023-01-30T04:05:37.936Z,99590.19
2023-01-30T04:08:07.375Z,99582.16
2023-01-30T04:10:35.272Z,99559.94
2023-01-30T04:13:03.216Z,99604.78
2023-01-30T04:15:31.125Z,99601.38
2023-01-30T04:17:59.060Z,99588.38
2023-01-30T04:20:27.109Z,99599.59
2023-01-30T04:22:55.750Z,99616.06
2023-01-30T04:25:25.073Z,99617.03
2023-01-30T04:27:53.106Z,99616.19
2023-01-30T04:30:21.261Z,99612.56
2023-01-30T04:32:49.205Z,99624.00
2023-01-30T04:35:17.481Z,99622.38
2023-01-30T04:37:45.550Z,99626.81
2023-01-30T04:40:13.999Z,99618.88
2023-01-30T04:42:43.317Z,99629.16
2023-01-30T04:45:12.219Z,99612.81
2023-01-30T04:47:40.189Z,99623.16
2023-01-30T04:50:09.076Z,99626.63
2023-01-30T04:52:38.913Z,99645.00
2023-01-30T04:55:08.331Z,99645.91
2023-01-30T04:57:36.249Z,99656.31
2023-01-30T05:00:07.073Z,99644.16
2023-01-30T05:02:34.981Z,99646.84
2023-01-30T05:05:02.868Z,99634.63
2023-01-30T05:07:30.777Z,99642.38
2023-01-30T05:09:58.762Z,99639.81
2023-01-30T05:12:26.712Z,99635.44
2023-01-30T05:14:54.661Z,99640.59
2023-01-30T05:17:24.086Z,99626.03
2023-01-30T05:19:52.071Z,99642.31
2023-01-30T05:22:20.005Z,99626.72
2023-01-30T05:24:48.694Z,99631.84
2023-01-30T05:27:16.722Z,99636.16
2023-01-30T05:29:44.698Z,99646.50
2023-01-30T05:32:15.097Z,99652.56
2023-01-30T05:34:44.504Z,99659.63
2023-01-30T05:37:12.938Z,99662.19
2023-01-30T05:39:40.890Z,99647.59
2023-01-30T05:42:08.874Z,99647.59
2023-01-30T05:44:36.798Z,99660.63
2023-01-30T05:47:04.790Z,99678.84
2023-01-30T05:49:32.713Z,99671.84
2023-01-30T05:52:02.028Z,99652.78
2023-01-30T05:54:29.970Z,99658.88
2023-01-30T05:56:57.908Z,99647.69
2023-01-30T05:59:25.838Z,99622.59
2023-01-30T06:01:53.755Z,99645.81
2023-01-30T06:04:21.702Z,99635.56
2023-01-30T06:06:50.834Z,99623.41
2023-01-30T06:09:20.188Z,99617.16
2023-01-30T06:11:48.120Z,99610.13
2023-01-30T06:14:16.029Z,99626.63
2023-01-30T06:16:43.978Z,99649.94
2023-01-30T06:19:12.713Z,99642.00
2023-01-30T06:21:40.691Z,99624.81
2023-01-30T06:24:08.910Z,99645.53
2023-01-30T06:26:38.222Z,99650.69
2023-01-30T06:29:06.367Z,99636.78
2023-01-30T06:31:35.044Z,99646.31
2023-01-30T06:34:03.048Z,99648.94
2023-01-30T06:36:31.043Z,99668.88
2023-01-30T06:38:59.000Z,99670.50
2023-01-30T06:41:26.949Z,99669.59
2023-01-30T06:43:56.829Z,99655.81
2023-01-30T06:46:24.989Z,99642.69
2023-01-30T06:48:53.041Z,99649.63
2023-01-30T06:51:20.950Z,99656.59
2023-01-30T06:53:49.910Z,99645.28
2023-01-30T06:56:18.569Z,99661.72
2023-01-30T06:58:46.654Z,99664.34
2023-01-30T07:01:16.040Z,99648.75
2023-01-30T07:03:44.034Z,99659.22
2023-01-30T07:06:11.895Z,99652.41
2023-01-30T07:08:40.931Z,99646.31
2023-01-30T07:11:08.826Z,99635.13
2023-01-30T07:13:36.828Z,99629.00
2023-01-30T07:16:04.831Z,99640.31
2023-01-30T07:18:34.194Z,99645.56
2023-01-30T07:21:02.127Z,99627.28
2023-01-30T07:23:30.057Z,99624.75
2023-01-30T07:25:57.953Z,99600.66
2023-01-30T07:28:25.838Z,99605.56
2023-01-30T07:30:53.758Z,99622.13
2023-01-30T07:33:21.778Z,99622.91
2023-01-30T07:35:51.049Z,99628.13
2023-01-30T07:38:19.049Z,99604.19
2023-01-30T07:40:46.985Z,99637.56
2023-01-30T07:43:15.849Z,99636.72
2023-01-30T07:45:45.690Z,99644.47
2023-01-30T07:48:15.309Z,99626.38
2023-01-30T07:50:43.752Z,99653.28
2023-01-30T07:53:15.278Z,99631.50
2023-01-30T07:55:43.489Z,99629.06
2023-01-30T07:58:14.692Z,99661.06
2023-01-30T08:00:42.977Z,99661.91
2023-01-30T08:03:13.542Z,99653.06
2023-01-30T08:05:41.462Z,99669.56
2023-01-30T08:08:09.468Z,99678.22
2023-01-30T08:10:38.764Z,99691.94
2023-01-30T08:13:06.691Z,99662.28
2023-01-30T08:15:34.619Z,99658.56
2023-01-30T08:18:03.223Z,99653.53
2023-01-30T08:20:31.173Z,99662.00
2023-01-30T08:23:00.662Z,99670.38
2023-01-30T08:25:28.894Z,99669.47
2023-01-30T08:28:00.370Z,99667.69
2023-01-30T08:30:29.673Z,99667.78
2023-01-30T08:32:58.827Z,99666.13
2023-01-30T08:35:27.880Z,99650.44
2023-01-30T08:37:55.983Z,99653.91
2023-01-30T08:40:24.027Z,99653.09
2023-01-30T08:42:51.963Z,99648.78
2023-01-30T08:45:21.323Z,99665.97
2023-01-30T08:47:52.299Z,99674.50
2023-01-30T08:50:20.666Z,99661.63
2023-01-30T08:52:48.714Z,99659.00
2023-01-30T08:55:18.107Z,99677.88
2023-01-30T08:57:46.037Z,99673.69
2023-01-30T09:00:15.057Z,99691.19
2023-01-30T09:02:47.568Z,99698.13
2023-01-30T09:05:15.624Z,99704.88
2023-01-30T09:07:43.594Z,99713.72
2023-01-30T09:10:12.475Z,99705.06
2023-01-30T09:12:40.553Z,99715.31
2023-01-30T09:15:10.006Z,99704.03
2023-01-30T09:17:38.391Z,99693.66
2023-01-30T09:20:09.874Z,99713.53
2023-01-30T09:22:38.137Z,99711.78
2023-01-30T09:25:07.015Z,99712.59
2023-01-30T09:27:35.216Z,99701.19
2023-01-30T09:30:03.246Z,99681.97
2023-01-30T09:32:31.176Z,99694.19
2023-01-30T09:34:59.105Z,99682.03
2023-01-30T09:37:28.416Z,99694.84
2023-01-30T09:39:56.366Z,99675.75
2023-01-30T09:42:47.008Z,99687.00
2023-01-30T09:45:44.745Z,99683.22
2023-01-30T09:48:19.651Z,99672.72
2023-01-30T09:51:07.987Z,99641.38
2023-01-30T09:53:49.166Z,99664.88
2023-01-30T09:56:17.248Z,99674.66
2023-01-30T09:58:49.033Z,99659.94
2023-01-30T10:01:24.002Z,99667.59
2023-01-30T10:04:06.421Z,99665.66
2023-01-30T10:06:42.391Z,99640.53
2023-01-30T10:09:18.409Z,99662.91
2023-01-30T10:12:00.564Z,99667.97
2023-01-30T10:14:51.740Z,99683.59
2023-01-30T10:17:32.982Z,99693.97
2023-01-30T10:20:15.193Z,99701.00
2023-01-30T10:22:53.369Z,99667.22
2023-01-30T10:25:30.485Z,99675.00
2023-01-30T10:28:05.008Z,99668.72
2023-01-30T10:30:33.672Z,99661.44
2023-01-30T10:33:07.203Z,99639.63
2023-01-30T10:35:38.069Z,99624.94
2023-01-30T10:38:14.880Z,99647.47
2023-01-30T10:40:48.585Z,99660.44
2023-01-30T10:43:23.996Z,99641.94
2023-01-30T10:46:02.814Z,99636.53
2023-01-30T10:48:51.804Z,99625.25
2023-01-30T10:51:28.964Z,99632.13
2023-01-30T10:54:03.438Z,99624.13
2023-01-30T10:56:41.143Z,99631.78
2023-01-30T10:59:23.172Z,99617.88
2023-01-30T11:01:59.393Z,99582.25
2023-01-30T11:04:32.459Z,99590.44
2023-01-30T11:07:02.120Z,99557.00
2023-01-30T11:09:40.895Z,99575.59
2023-01-30T11:12:10.417Z,99564.31
2023-01-30T11:14:56.577Z,99579.22
2023-01-30T11:17:32.069Z,99568.34
2023-01-30T11:20:06.131Z,99556.63
2023-01-30T11:22:35.957Z,99564.03
2023-01-30T11:25:07.579Z,99554.69
2023-01-30T11:27:36.973Z,99549.56
2023-01-30T11:30:16.080Z,99545.16
2023-01-30T11:32:45.256Z,99520.97
2023-01-30T11:35:25.585Z,99513.34
2023-01-30T11:37:54.700Z,99508.81
2023-01-30T11:40:31.687Z,99537.41
2023-01-30T11:43:07.243Z,99493.22
2023-01-30T11:45:40.766Z,99504.75
2023-01-30T11:48:33.496Z,99517.56
2023-01-30T11:51:10.823Z,99525.41
2023-01-30T11:53:42.397Z,99513.19
2023-01-30T11:56:17.008Z,99504.44
2023-01-30T11:58:50.413Z,99496.53
2023-01-30T12:01:18.549Z,99489.44
2023-01-30T12:03:49.988Z,99485.03
2023-01-30T12:06:25.938Z,99484.75
2023-01-30T12:08:56.045Z,99489.66
2023-01-30T12:11:30.369Z,99476.88
2023-01-30T12:14:10.350Z,99484.88
2023-01-30T12:16:51.900Z,99482.38
2023-01-30T12:19:30.798Z,99499.50
2023-01-30T12:22:05.418Z,99471.56
2023-01-30T12:24:39.686Z,99496.78
2023-01-30T12:27:15.283Z,99486.72
2023-01-30T12:29:58.864Z,99504.19
2023-01-30T12:32:28.900Z,99507.69
2023-01-30T12:34:57.438Z,99508.66
2023-01-30T12:37:52.657Z,99508.13
2023-01-30T12:40:32.289Z,99499.88
2023-01-30T12:43:23.548Z,99515.91
2023-01-30T12:46:04.592Z,99499.78
2023-01-30T12:49:12.107Z,99510.84
2023-01-30T12:51:57.507Z,99501.38
2023-01-30T12:54:38.419Z,99499.19
2023-01-30T12:57:15.867Z,99484.19
2023-01-30T12:59:54.847Z,99479.13
2023-01-30T13:02:47.375Z,99477.59
2023-01-30T13:05:36.711Z,99479.31
2023-01-30T13:08:25.046Z,99473.84
2023-01-30T13:11:01.261Z,99483.91
2023-01-30T13:13:43.147Z,99473.34
2023-01-30T13:16:21.179Z,99469.41
2023-01-30T13:18:55.688Z,99457.47
2023-01-30T13:21:31.142Z,99447.34
2023-01-30T13:24:15.191Z,99455.50
2023-01-30T13:26:45.520Z,99459.22
2023-01-30T13:29:17.441Z,99465.13
2023-01-30T13:31:53.469Z,99450.53
2023-01-30T13:34:29.437Z,99440.03
2023-01-30T13:37:03.985Z,99450.13
2023-01-30T13:39:42.526Z,99427.31
2023-01-30T13:42:21.288Z,99442.22
2023-01-30T13:44:51.448Z,99452.34
2023-01-30T13:47:35.647Z,99460.75
2023-01-30T13:50:13.782Z,99458.00
2023-01-30T13:52:48.007Z,99445.44
2023-01-30T13:55:26.934Z,99471.69
2023-01-30T13:58:03.416Z,99477.81
2023-01-30T14:00:33.289Z,99479.09
2023-01-30T14:03:31.562Z,99478.56
2023-01-30T14:06:33.880Z,99473.31
2023-01-30T14:09:18.181Z,99468.59
2023-01-30T14:11:49.893Z,99482.41
2023-01-30T14:14:30.907Z,99482.56
2023-01-30T14:17:10.135Z,99470.19
2023-01-30T14:19:55.359Z,99472.72
2023-01-30T14:22:36.288Z,99470.03
2023-01-30T14:25:47.040Z,99474.31
2023-01-30T14:28:53.673Z,99491.94
2023-01-30T14:31:52.267Z,99492.78
2023-01-30T14:34:48.149Z,99497.31
2023-01-30T14:37:46.048Z,99508.50
2023-01-30T14:40:37.126Z,99514.25
2023-01-30T14:43:40.656Z,99505.84
2023-01-30T14:46:33.963Z,99528.19
2023-01-30T14:49:05.659Z,99523.09
2023-01-30T14:51:37.086Z,99529.19
2023-01-30T14:54:20.665Z,99532.00
2023-01-30T14:56:54.231Z,99538.53
2023-01-30T14:59:26.109Z,99547.22
2023-01-30T15:02:00.820Z,99537.50
2023-01-30T15:04:32.882Z,99536.03
2023-01-30T15:07:03.631Z,99553.97
2023-01-30T15:09:33.721Z,99556.72
2023-01-30T15:12:21.447Z,99555.91
2023-01-30T15:15:02.724Z,99576.19
2023-01-30T15:17:43.065Z,99561.84
2023-01-30T15:20:27.452Z,99573.31
2023-01-30T15:23:13.034Z,99580.50
2023-01-30T15:26:01.143Z,99580.44
2023-01-30T15:28:45.929Z,99598.25
2023-01-30T15:31:20.236Z,99596.38
2023-01-30T15:33:53.179Z,99592.34
2023-01-30T15:36:31.058Z,99588.91
2023-01-30T15:39:01.910Z,99588.84
2023-01-30T15:41:33.818Z,99597.66
2023-01-30T15:44:20.464Z,99599.59
2023-01-30T15:46:54.921Z,99615.06
2023-01-30T15:49:47.599Z,99613.38
2023-01-30T15:52:19.567Z,99609.13
2023-01-30T15:54:53.423Z,99605.66
2023-01-30T15:57:24.874Z,99603.06
2023-01-30T15:59:56.630Z,99607.75
2023-01-30T16:02:30.672Z,99626.91
2023-01-30T16:05:17.961Z,99637.25
2023-01-30T16:07:47.794Z,99639.25
2023-01-30T16:10:18.297Z,99649.75
2023-01-30T16:12:50.392Z,99648.88
2023-01-30T16:15:25.242Z,99653.19
2023-01-30T16:18:03.677Z,99651.59
2023-01-30T16:20:48.700Z,99649.09
2023-01-30T16:23:30.611Z,99660.41
2023-01-30T16:26:01.722Z,99675.19
2023-01-30T16:28:32.590Z,99677.94
2023-01-30T16:31:03.862Z,99685.81
2023-01-30T16:33:37.029Z,99684.16
2023-01-30T16:36:07.013Z,99672.13
2023-01-30T16:38:39.193Z,99689.53
2023-01-30T16:41:07.162Z,99684.34
2023-01-30T16:43:36.498Z,99687.81
2023-01-30T16:46:40.132Z,99687.03
2023-01-30T16:49:16.258Z,99681.19
2023-01-30T16:51:44.597Z,99676.06
2023-01-30T16:54:20.457Z,99679.31
2023-01-30T16:56:52.274Z,99694.19
2023-01-30T16:59:30.957Z,99707.13
2023-01-30T17:01:59.967Z,99710.66
2023-01-30T17:04:30.954Z,99705.47
2023-01-30T17:07:01.221Z,99709.06
2023-01-30T17:09:44.610Z,99702.91
2023-01-30T17:12:43.716Z,99708.16
2023-01-30T17:15:31.056Z,99688.13
2023-01-30T17:17:59.694Z,99709.03
2023-01-30T17:20:39.235Z,99708.16
2023-01-30T17:23:10.651Z,99719.66
2023-01-30T17:25:42.973Z,99712.91
2023-01-30T17:28:21.444Z,99736.25
2023-01-30T17:30:51.407Z,99729.22
2023-01-30T17:33:19.440Z,99728.38
2023-01-30T17:35:47.560Z,99732.78
2023-01-30T17:38:15.590Z,99737.91
2023-01-30T17:40:44.024Z,99745.81
2023-01-30T17:43:13.291Z,99750.22
2023-01-30T17:45:41.723Z,99749.34
2023-01-30T17:48:13.796Z,99757.16
2023-01-30T17:50:41.702Z,99765.03
2023-01-30T17:53:09.622Z,99766.03
2023-01-30T17:55:37.549Z,99776.41
2023-01-30T17:58:05.660Z,99778.16
2023-01-30T18:00:33.582Z,99779.28
2023-01-30T18:03:01.514Z,99781.69
2023-01-30T18:05:31.207Z,99788.03
2023-01-30T18:07:59.113Z,99781.25
2023-01-30T18:10:27.170Z,99781.97
2023-01-30T18:12:55.068Z,99789.88
2023-01-30T18:15:23.033Z,99783.84
2023-01-30T18:17:54.954Z,99797.63
2023-01-30T18:20:22.936Z,99795.91
2023-01-30T18:22:52.345Z,99809.72
2023-01-30T18:25:20.685Z,99810.69
2023-01-30T18:27:48.941Z,99808.13
2023-01-30T18:30:18.362Z,99806.34
2023-01-30T18:32:53.607Z,99801.13
2023-01-30T18:35:22.221Z,99796.88
2023-01-30T18:37:51.064Z,99796.97
2023-01-30T18:40:21.944Z,99794.47
2023-01-30T18:42:50.314Z,99797.34
2023-01-30T18:45:18.452Z,99797.31
2023-01-30T18:47:46.431Z,99795.38
2023-01-30T18:50:14.463Z,99779.06
2023-01-30T18:52:42.407Z,99790.31
2023-01-30T18:55:10.861Z,99789.47
2023-01-30T18:57:40.226Z,99786.19
2023-01-30T19:00:10.011Z,99786.22
2023-01-30T19:02:38.079Z,99792.22
2023-01-30T19:05:06.581Z,99794.06
2023-01-30T19:07:36.604Z,99803.63
2023-01-30T19:10:04.845Z,99802.00
2023-01-30T19:12:50.369Z,99808.06
2023-01-30T19:15:19.725Z,99795.78
2023-01-30T19:17:47.613Z,99782.88
2023-01-30T19:20:15.525Z,99793.34
2023-01-30T19:22:43.407Z,99796.00
2023-01-30T19:25:11.567Z,99791.84
2023-01-30T19:27:39.998Z,99804.06
2023-01-30T19:30:09.543Z,99804.00
2023-01-30T19:32:39.949Z,99804.06
2023-01-30T19:35:08.656Z,99807.44
2023-01-30T19:37:38.507Z,99815.41
2023-01-30T19:40:10.877Z,99820.84
2023-01-30T19:42:44.404Z,99819.00
2023-01-30T19:45:15.211Z,99819.09
2023-01-30T19:47:45.217Z,99820.75
2023-01-30T19:50:14.725Z,99825.00
2023-01-30T19:52:42.616Z,99832.75
2023-01-30T19:55:10.915Z,99828.25
2023-01-30T19:57:39.052Z,99824.00
2023-01-30T20:00:10.023Z,99825.03
2023-01-30T20:02:40.650Z,99822.41
2023-01-30T20:05:11.950Z,99831.25
2023-01-30T20:07:42.408Z,99834.91
2023-01-30T20:10:13.013Z,99842.75
2023-01-30T20:12:42.938Z,99845.25
2023-01-30T20:15:13.099Z,99836.47
2023-01-30T20:17:42.979Z,99840.88
2023-01-30T20:20:14.443Z,99849.47
2023-01-30T20:22:46.199Z,99844.22
2023-01-30T20:25:15.222Z,99847.59
2023-01-30T20:27:45.854Z,99838.78
2023-01-30T20:30:16.345Z,99836.19
2023-01-30T20:32:45.413Z,99851.75
2023-01-30T20:35:15.785Z,99861.41
2023-01-30T20:37:45.089Z,99852.81
2023-01-30T20:40:15.602Z,99855.28
2023-01-30T20:42:44.781Z,99851.91
2023-01-30T20:45:13.463Z,99864.88
2023-01-30T20:47:42.234Z,99871.56
2023-01-30T20:50:14.110Z,99869.06
2023-01-30T20:52:44.248Z,99871.66
2023-01-30T20:55:12.608Z,99872.63
2023-01-30T20:57:43.871Z,99841.69
2023-01-30T21:00:14.760Z,99887.50
2023-01-30T21:02:43.327Z,99886.56
2023-01-30T21:05:13.007Z,99887.38
2023-01-30T21:07:41.182Z,99886.47
2023-01-30T21:10:12.347Z,99894.38
2023-01-30T21:12:40.528Z,99889.09
2023-01-30T21:15:09.789Z,99877.00
2023-01-30T21:17:38.387Z,99886.47
2023-01-30T21:20:06.978Z,99892.59
2023-01-30T21:22:34.917Z,99898.78
2023-01-30T21:25:02.874Z,99894.59
2023-01-30T21:27:32.152Z,99910.25
2023-01-30T21:30:00.537Z,99921.56
2023-01-30T21:32:28.441Z,99919.88
2023-01-30T21:34:56.368Z,99924.19
2023-01-30T21:37:41.649Z,99923.13
2023-01-30T21:40:28.855Z,99914.44
2023-01-30T21:43:16.282Z,99920.59
2023-01-30T21:45:44.594Z,99933.72
2023-01-30T21:48:12.599Z,99929.34
2023-01-30T21:50:40.989Z,99934.75
2023-01-30T21:53:08.988Z,99936.56
2023-01-30T21:55:36.895Z,99945.34
2023-01-30T21:58:06.206Z,99947.03
2023-01-30T22:00:34.062Z,99945.19
2023-01-30T22:03:01.982Z,99944.31
2023-01-30T22:05:36.531Z,99948.72
2023-01-30T22:08:05.155Z,99951.31
2023-01-30T22:10:33.067Z,99950.53
2023-01-30T22:13:01.320Z,99954.81
2023-01-30T22:15:30.706Z,99958.47
2023-01-30T22:17:58.607Z,99961.84
2023-01-30T22:20:26.612Z,99962.84
2023-01-30T22:22:54.977Z,99964.69
2023-01-30T22:25:22.955Z,99969.81
2023-01-30T22:27:50.978Z,99968.94
2023-01-30T22:30:19.563Z,99973.34
2023-01-30T22:32:48.878Z,99971.56
2023-01-30T22:35:17.182Z,99971.50
2023-01-30T22:37:45.331Z,99958.78
2023-01-30T22:40:13.831Z,99978.59
2023-01-30T22:42:47.613Z,99976.16
2023-01-30T22:45:15.568Z,99973.56
2023-01-30T22:47:43.448Z,99978.78
2023-01-30T22:50:13.014Z,99987.56
2023-01-30T22:52:40.877Z,99991.81
2023-01-30T22:55:09.488Z,99997.13
2023-01-30T22:57:37.376Z,99988.34
2023-01-30T23:00:06.989Z,99991.09
2023-01-30T23:02:35.927Z,99982.56
2023-01-30T23:05:03.919Z,99993.97
2023-01-30T23:07:33.528Z,99989.69
2023-01-30T23:10:01.429Z,99984.50
2023-01-30T23:12:46.775Z,99983.72
2023-01-30T23:15:14.696Z,99979.53
2023-01-30T23:18:00.155Z,99983.94
2023-01-30T23:20:28.131Z,99966.84
2023-01-30T23:22:57.382Z,99975.38
2023-01-30T23:25:25.274Z,99970.22
2023-01-30T23:27:53.174Z,99972.06
2023-01-30T23:30:21.132Z,99961.69
2023-01-30T23:32:48.990Z,99963.28
2023-01-30T23:35:17.402Z,99962.44
2023-01-30T23:38:03.404Z,99956.34
2023-01-30T23:40:32.740Z,99953.56
2023-01-30T23:43:00.638Z,99953.63
2023-01-30T23:45:29.530Z,99950.19
2023-01-30T23:47:57.401Z,99950.94
2023-01-30T23:50:25.289Z,99951.78
2023-01-30T23:52:53.228Z,99947.31
2023-01-30T23:55:21.415Z,99943.75
2023-01-30T23:57:50.916Z,99936.81
